Main page
METAR-TAF:

METAR-TAF

Airports :

Ruben Berta International Airport

Uruguaiana, Rio Grande do Sul, Brazil

latitude: 29-47S, longitude: 057-02W, elevation: 74 m

Current weather observation

The report was made 6 hours and 27 minutes ago, at 22:00 UTC
Wind 6 kt from the East/Northeast
Temperature 15°C
Humidity 77%
Pressure 1015 hPa
Visibility 10 km or more
no clouds below 1500 m and no cumulonimbus

METAR: SBUG 252200Z 07006KT CAVOK 15/11 Q1015

Time: 01:27 (04:27 UTC)

Forecast

The report was made 13 hours and 27 minutes ago, at 15:00 UTC
Forecast valid from 25 at 18 UTC to 26 at 06 UTC
Wind 6 kt from the North/Northeast
Visibility 10 km or more
no clouds below 1500 m and no cumulonimbus

TAF: SBUG 251500Z 2518/2606 02006KT CAVOK TX19/2518Z TN12/2606Z RMK PD J

Weather observations and forecasts of more than 4000 airports (METAR and TAF reports).

The available stations are represented by yellow and red dots on the map.

Hover mouse over dot to see the name of the station.

Then click to see weather observations and forecasts.

To change the map : click on the green buttons with a black cross to zoom in, on the green button with a dash to zoom out, or on the green arrows for adjacent maps.


METAR-TAF: